createdAt,value
2023-01-08T00:03:42.851Z,1.77
2023-01-08T00:11:01.396Z,1.66
2023-01-08T00:18:21.378Z,1.56
2023-01-08T00:25:43.237Z,1.59
2023-01-08T00:33:01.419Z,1.42
2023-01-08T00:40:21.105Z,1.47
2023-01-08T00:47:39.404Z,1.43
2023-01-08T00:54:57.555Z,1.36
2023-01-08T01:02:17.240Z,1.42
2023-01-08T01:09:35.421Z,1.34
2023-01-08T01:16:53.725Z,1.34
2023-01-08T01:24:14.399Z,1.37
2023-01-08T01:31:33.650Z,1.36
2023-01-08T01:38:53.800Z,1.48
2023-01-08T01:46:22.300Z,1.30
2023-01-08T01:53:44.123Z,1.27
2023-01-08T02:01:07.334Z,1.22
2023-01-08T02:08:29.578Z,1.18
2023-01-08T02:15:51.274Z,1.02
2023-01-08T02:23:23.215Z,1.00
2023-01-08T02:30:43.570Z,1.06
2023-01-08T02:38:01.787Z,1.01
2023-01-08T02:45:28.009Z,0.93
2023-01-08T02:52:54.136Z,0.85
2023-01-08T03:00:13.919Z,0.92
2023-01-08T03:07:32.239Z,0.78
2023-01-08T03:14:56.042Z,0.85
2023-01-08T03:22:17.157Z,0.73
2023-01-08T03:29:35.981Z,0.63
2023-01-08T03:36:57.254Z,0.74
2023-01-08T03:44:15.994Z,0.80
2023-01-08T03:51:41.872Z,0.80
2023-01-08T03:59:01.414Z,0.66
2023-01-08T04:06:19.517Z,0.64
2023-01-08T04:13:37.972Z,0.67
2023-01-08T04:20:57.546Z,0.73
2023-01-08T04:28:15.844Z,0.79
2023-01-08T04:35:34.033Z,0.72
2023-01-08T04:42:53.671Z,0.78
2023-01-08T04:50:11.975Z,0.80
2023-01-08T04:57:30.264Z,0.66
2023-01-08T05:04:50.405Z,0.70
2023-01-08T05:12:08.708Z,0.73
2023-01-08T05:19:26.948Z,0.80
2023-01-08T05:26:46.548Z,0.80
2023-01-08T05:34:04.718Z,0.84
2023-01-08T05:41:23.724Z,0.81
2023-01-08T05:48:43.729Z,0.89
2023-01-08T05:56:07.163Z,0.92
2023-01-08T06:03:26.425Z,0.84
2023-01-08T06:10:46.853Z,0.79
2023-01-08T06:18:05.393Z,0.71
2023-01-08T06:25:23.726Z,0.65
2023-01-08T06:32:43.309Z,0.60
2023-01-08T06:40:01.504Z,0.73
2023-01-08T06:47:19.769Z,0.75
2023-01-08T06:54:42.656Z,0.84
2023-01-08T07:02:01.017Z,0.88
2023-01-08T07:09:19.297Z,0.99
2023-01-08T07:16:39.132Z,1.10
2023-01-08T07:23:57.222Z,1.42
2023-01-08T07:31:15.552Z,1.68
2023-01-08T07:38:35.755Z,1.77
2023-01-08T07:45:54.581Z,1.79
2023-01-08T07:53:13.795Z,1.77
2023-01-08T08:00:33.801Z,1.89
2023-01-08T08:07:52.136Z,1.91
2023-01-08T08:15:11.744Z,1.96
2023-01-08T08:22:31.448Z,2.23
2023-01-08T08:29:49.750Z,2.55
2023-01-08T08:37:09.032Z,3.00
2023-01-08T08:44:28.565Z,3.21
2023-01-08T08:51:46.891Z,4.16
2023-01-08T08:59:05.117Z,5.34
2023-01-08T09:06:27.598Z,6.34
2023-01-08T09:13:45.960Z,6.78
2023-01-08T09:21:07.595Z,7.42
2023-01-08T09:28:31.119Z,7.98
2023-01-08T09:35:49.633Z,7.75
2023-01-08T09:43:11.767Z,8.11
2023-01-08T09:50:33.173Z,9.52
2023-01-08T09:57:51.898Z,11.02
2023-01-08T10:05:14.185Z,11.45
2023-01-08T10:12:34.900Z,10.53
2023-01-08T10:19:53.114Z,9.81
2023-01-08T10:27:16.828Z,9.31
2023-01-08T10:34:44.616Z,9.65
2023-01-08T10:42:06.915Z,9.23
2023-01-08T10:49:32.024Z,8.84
2023-01-08T10:56:51.774Z,8.89
2023-01-08T11:04:22.764Z,8.95
2023-01-08T11:11:41.288Z,8.43
2023-01-08T11:19:01.026Z,8.78
2023-01-08T11:26:22.471Z,9.24
2023-01-08T11:33:41.974Z,9.61
2023-01-08T11:41:11.265Z,9.56
2023-01-08T11:48:39.128Z,8.80
2023-01-08T11:56:08.012Z,8.53
2023-01-08T12:03:33.198Z,8.41
2023-01-08T12:11:00.502Z,8.68
2023-01-08T12:18:31.325Z,9.01
2023-01-08T12:26:05.061Z,8.88
2023-01-08T12:33:34.170Z,8.79
2023-01-08T12:40:55.241Z,8.77
2023-01-08T12:48:16.841Z,8.71
2023-01-08T12:55:43.911Z,8.54
2023-01-08T13:03:04.356Z,8.23
2023-01-08T13:10:28.231Z,7.92
2023-01-08T13:17:49.561Z,7.82
2023-01-08T13:25:36.022Z,7.70
2023-01-08T13:32:56.065Z,7.49
2023-01-08T13:40:39.731Z,7.33
2023-01-08T13:47:59.201Z,7.21
2023-01-08T13:55:19.144Z,7.13
2023-01-08T14:02:50.331Z,7.08
2023-01-08T14:10:15.291Z,6.96
2023-01-08T14:17:34.040Z,6.93
2023-01-08T14:24:56.517Z,6.91
2023-01-08T14:32:19.207Z,6.73
2023-01-08T14:39:38.594Z,6.65
2023-01-08T14:46:57.143Z,6.48
2023-01-08T14:54:20.000Z,6.27
2023-01-08T15:01:38.559Z,6.22
2023-01-08T15:08:57.544Z,5.96
2023-01-08T15:16:20.732Z,5.96
2023-01-08T15:23:41.785Z,5.80
2023-01-08T15:31:00.035Z,5.82
2023-01-08T15:38:23.772Z,5.60
2023-01-08T15:45:43.567Z,5.66
2023-01-08T15:53:02.682Z,5.58
2023-01-08T16:00:22.943Z,5.56
2023-01-08T16:07:41.228Z,5.52
2023-01-08T16:14:59.491Z,5.49
2023-01-08T16:22:19.140Z,5.37
2023-01-08T16:29:37.334Z,5.35
2023-01-08T16:36:55.584Z,5.30
2023-01-08T16:44:20.370Z,5.26
2023-01-08T16:51:41.246Z,5.17
2023-01-08T16:58:59.574Z,5.25
2023-01-08T17:06:19.261Z,5.23
2023-01-08T17:13:37.816Z,5.22
2023-01-08T17:20:56.365Z,5.22
2023-01-08T17:28:16.000Z,5.21
2023-01-08T17:35:34.213Z,5.19
2023-01-08T17:42:52.523Z,5.23
2023-01-08T17:50:13.138Z,5.17
2023-01-08T17:57:31.783Z,5.23
2023-01-08T18:04:50.176Z,5.28
2023-01-08T18:12:10.212Z,5.29
2023-01-08T18:19:28.445Z,5.20
2023-01-08T18:26:46.738Z,5.16
2023-01-08T18:34:06.353Z,5.15
2023-01-08T18:41:42.262Z,5.11
2023-01-08T18:49:00.471Z,5.16
2023-01-08T18:56:22.822Z,5.24
2023-01-08T19:03:40.983Z,5.20
2023-01-08T19:10:59.278Z,5.24
2023-01-08T19:18:18.887Z,5.16
2023-01-08T19:25:39.878Z,5.16
2023-01-08T19:32:58.037Z,5.13
2023-01-08T19:40:17.923Z,5.07
2023-01-08T19:47:36.111Z,5.09
2023-01-08T19:54:55.247Z,4.96
2023-01-08T20:02:14.994Z,4.69
2023-01-08T20:09:34.987Z,4.69
2023-01-08T20:16:54.466Z,4.62
2023-01-08T20:24:14.842Z,4.70
2023-01-08T20:31:35.187Z,4.60
2023-01-08T20:38:54.918Z,4.51
2023-01-08T20:46:14.923Z,4.34
2023-01-08T20:53:35.266Z,4.25
2023-01-08T21:00:54.052Z,4.14
2023-01-08T21:08:13.711Z,3.97
2023-01-08T21:15:32.022Z,3.69
2023-01-08T21:22:50.245Z,3.58
2023-01-08T21:30:11.749Z,3.45
2023-01-08T21:37:31.491Z,3.20
2023-01-08T21:45:07.277Z,3.07
2023-01-08T21:52:44.257Z,2.97
2023-01-08T22:00:02.533Z,2.87
2023-01-08T22:07:22.814Z,2.89
2023-01-08T22:14:42.544Z,2.81
2023-01-08T22:22:00.785Z,2.89
2023-01-08T22:29:18.986Z,2.79
2023-01-08T22:36:38.881Z,2.69
2023-01-08T22:43:57.937Z,2.47
2023-01-08T22:51:16.132Z,2.34
2023-01-08T22:58:35.771Z,2.37
2023-01-08T23:06:02.109Z,2.41
2023-01-08T23:13:20.222Z,2.48
2023-01-08T23:20:39.868Z,2.62
2023-01-08T23:27:57.969Z,2.71
2023-01-08T23:35:16.319Z,2.57
2023-01-08T23:42:35.804Z,2.44
2023-01-08T23:49:54.059Z,2.23
2023-01-08T23:57:12.502Z,2.10
